Time;durP1;ratioP1;P1;durP2;ratioP2;P2;SDS_P1;SDS_P2;PMS_P1;PMS_P2;Temp;Humidity;BMP_temperature;BMP_pressure;BME280_temperature;BME280_humidity;BME280_pressure;Samples;Min_cycle;Max_cycle;Signal;HPM_P1;HPM_P2
2021/12/27 00:00:45;;;;;;;10.85;2.20;;;19.80;99.90;;;;;;5041319;28;20058;-66
2021/12/27 00:03:12;;;;;;;15.25;2.65;;;19.90;99.90;;;;;;5053845;28;20107;-66
2021/12/27 00:05:40;;;;;;;20.67;3.28;;;20.00;99.90;;;;;;5052729;28;20374;-66
2021/12/27 00:08:08;;;;;;;11.55;1.85;;;20.20;99.90;;;;;;5049421;28;20022;-66
2021/12/27 00:10:36;;;;;;;9.65;2.13;;;20.40;99.90;;;;;;5048858;28;20032;-66
2021/12/27 00:13:05;;;;;;;15.23;2.50;;;20.40;99.90;;;;;;5051567;28;20110;-67
2021/12/27 00:15:33;;;;;;;17.83;2.53;;;20.50;99.90;;;;;;5061940;28;20021;-66
2021/12/27 00:18:00;;;;;;;11.75;2.42;;;20.40;99.90;;;;;;5055531;28;20091;-66
2021/12/27 00:20:28;;;;;;;12.52;2.38;;;20.30;99.90;;;;;;5056810;28;20108;-67
2021/12/27 00:22:55;;;;;;;15.80;2.70;;;20.20;99.90;;;;;;5042427;28;20083;-66
2021/12/27 00:25:23;;;;;;;19.02;2.90;;;20.20;99.90;;;;;;5034198;28;20021;-67
2021/12/27 00:27:50;;;;;;;11.13;2.00;;;20.30;99.90;;;;;;5043814;28;20359;-67
2021/12/27 00:30:20;;;;;;;15.05;3.03;;;20.60;99.90;;;;;;5054738;28;20025;-66
2021/12/27 00:32:47;;;;;;;11.15;2.22;;;20.70;99.90;;;;;;5054220;28;20450;-67
2021/12/27 00:35:17;;;;;;;12.85;2.33;;;20.90;99.90;;;;;;5058876;28;20044;-68
2021/12/27 00:37:46;;;;;;;10.70;2.05;;;20.90;99.90;;;;;;5057822;28;20863;-67
2021/12/27 00:40:14;;;;;;;12.38;2.03;;;20.80;99.90;;;;;;5057610;28;20036;-67
2021/12/27 00:42:42;;;;;;;16.48;2.20;;;20.70;99.90;;;;;;5054608;28;20025;-67
2021/12/27 00:45:11;;;;;;;9.75;2.05;;;20.80;99.90;;;;;;5058334;28;20401;-68
2021/12/27 00:47:39;;;;;;;16.45;3.03;;;20.70;99.90;;;;;;5052974;28;20049;-67
2021/12/27 00:50:07;;;;;;;16.67;2.15;;;20.70;99.90;;;;;;5055120;28;20021;-68
2021/12/27 00:52:35;;;;;;;12.88;2.38;;;21.00;99.90;;;;;;5054315;28;20052;-66
2021/12/27 00:55:05;;;;;;;16.85;3.33;;;20.90;99.90;;;;;;5038416;28;20081;-67
2021/12/27 00:57:32;;;;;;;10.25;2.53;;;21.00;99.90;;;;;;5056562;28;20055;-67
2021/12/27 01:00:00;;;;;;;22.33;2.55;;;21.00;99.90;;;;;;5055346;28;20036;-67
2021/12/27 01:02:27;;;;;;;12.05;2.47;;;21.10;99.90;;;;;;5042718;28;20025;-67
2021/12/27 01:04:57;;;;;;;16.40;3.13;;;21.10;99.90;;;;;;5041567;28;20493;-66
2021/12/27 01:07:25;;;;;;;11.80;1.80;;;21.20;99.90;;;;;;5044442;28;20112;-67
2021/12/27 01:10:12;;;;;;;22.20;2.67;;;21.40;99.90;;;;;;5044284;28;20026;-66
2021/12/27 01:15:35;;;;;;;16.33;2.88;;;21.80;99.90;;;;;;5065120;28;20025;-67
2021/12/27 01:18:02;;;;;;;;;;;21.80;99.90;;;;;;5057414;28;20028;-67
2021/12/27 01:20:29;;;;;;;12.10;2.40;;;21.60;99.90;;;;;;5059724;28;19936;-66
2021/12/27 01:22:57;;;;;;;16.05;2.85;;;21.40;99.90;;;;;;5059435;28;20086;-67
2021/12/27 01:25:25;;;;;;;13.52;3.22;;;21.40;99.90;;;;;;5056302;28;20029;-67
2021/12/27 01:27:53;;;;;;;15.38;3.05;;;21.70;99.90;;;;;;5062028;28;20493;-66
2021/12/27 01:30:22;;;;;;;13.63;2.83;;;21.40;99.90;;;;;;5060957;28;20115;-67
2021/12/27 01:32:56;;;;;;;14.20;2.75;;;21.40;99.90;;;;;;5058674;28;20064;-67
2021/12/27 01:35:24;;;;;;;13.25;3.10;;;21.40;99.90;;;;;;5060393;28;20029;-67
2021/12/27 01:37:53;;;;;;;15.38;2.83;;;21.50;99.90;;;;;;5054318;28;20061;-67
2021/12/27 01:40:28;;;;;;;18.50;2.55;;;21.80;99.90;;;;;;5043191;28;20025;-68
2021/12/27 01:43:00;;;;;;;;;;;21.90;99.90;;;;;;5044064;28;20041;-67
2021/12/27 01:45:28;;;;;;;14.18;1.80;;;22.10;99.90;;;;;;5045665;28;19913;-67
2021/12/27 01:47:55;;;;;;;14.00;2.15;;;22.00;99.90;;;;;;5051255;28;20060;-66
2021/12/27 01:50:23;;;;;;;10.05;1.80;;;21.90;99.90;;;;;;5063230;28;20561;-66
2021/12/27 01:52:50;;;;;;;10.50;2.28;;;21.90;99.90;;;;;;5071253;28;20020;-66
2021/12/27 01:55:18;;;;;;;11.43;2.72;;;21.80;99.90;;;;;;5072851;28;20051;-65
2021/12/27 01:57:46;;;;;;;9.82;2.22;;;21.90;99.90;;;;;;5067251;28;20064;-66
2021/12/27 02:00:14;;;;;;;12.18;2.67;;;21.90;99.90;;;;;;5065622;28;20031;-65
2021/12/27 02:02:41;;;;;;;8.27;1.88;;;22.20;99.90;;;;;;5068605;28;20033;-67
2021/12/27 02:05:09;;;;;;;12.02;1.88;;;22.30;99.90;;;;;;5069302;28;20021;-65
2021/12/27 02:07:36;;;;;;;12.70;2.05;;;22.20;99.90;;;;;;5073051;28;20025;-65
2021/12/27 02:10:04;;;;;;;14.75;2.75;;;22.30;99.90;;;;;;5069323;28;20040;-66
2021/12/27 02:12:32;;;;;;;15.63;3.03;;;21.90;99.90;;;;;;5068885;28;20036;-66
2021/12/27 02:15:03;;;;;;;9.82;2.08;;;22.00;99.90;;;;;;5065486;28;20021;-67
2021/12/27 02:17:30;;;;;;;13.60;2.53;;;21.90;99.90;;;;;;5061795;28;20045;-66
2021/12/27 02:19:57;;;;;;;11.80;2.85;;;21.90;99.90;;;;;;5063749;28;20021;-66
2021/12/27 02:22:24;;;;;;;11.63;2.22;;;21.80;99.90;;;;;;5066660;28;20072;-65
2021/12/27 02:24:52;;;;;;;8.18;1.80;;;21.60;99.90;;;;;;5076102;28;20037;-65
2021/12/27 02:27:19;;;;;;;13.88;2.83;;;21.60;99.90;;;;;;5071145;28;20055;-67
2021/12/27 02:29:46;;;;;;;13.68;2.80;;;21.70;99.90;;;;;;5070098;28;20510;-67
2021/12/27 02:32:14;;;;;;;16.88;2.53;;;21.50;99.90;;;;;;5062955;28;20056;-70
2021/12/27 02:34:41;;;;;;;18.30;2.97;;;21.50;99.90;;;;;;5061613;28;20103;-67
2021/12/27 02:37:08;;;;;;;17.27;2.58;;;21.50;99.90;;;;;;5058012;28;20024;-67
2021/12/27 02:39:35;;;;;;;10.40;2.30;;;21.60;99.90;;;;;;5069419;28;20025;-68
2021/12/27 02:42:03;;;;;;;10.25;1.83;;;21.80;99.90;;;;;;5065570;28;20504;-68
2021/12/27 02:44:30;;;;;;;10.43;2.20;;;21.80;99.90;;;;;;5042548;28;20021;-67
2021/12/27 02:46:58;;;;;;;10.73;2.28;;;21.70;99.90;;;;;;5058477;28;20091;-68
2021/12/27 02:49:25;;;;;;;6.68;1.40;;;21.60;99.90;;;;;;5068718;28;20025;-68
2021/12/27 02:51:55;;;;;;;10.13;1.55;;;21.50;99.90;;;;;;5063679;28;20052;-67
2021/12/27 02:54:22;;;;;;;10.70;1.50;;;21.40;99.90;;;;;;5056947;28;20056;-68
2021/12/27 02:56:49;;;;;;;12.15;1.88;;;21.40;99.90;;;;;;5055361;28;20034;-68
2021/12/27 02:59:17;;;;;;;9.05;1.40;;;21.20;99.90;;;;;;5048079;28;20025;-68
2021/12/27 03:01:44;;;;;;;10.10;1.60;;;21.30;99.90;;;;;;5053936;28;20507;-67
2021/12/27 03:04:11;;;;;;;8.50;1.42;;;21.30;99.90;;;;;;5062021;28;20080;-68
2021/12/27 03:06:38;;;;;;;8.10;1.55;;;21.40;99.90;;;;;;5054351;28;20028;-67
2021/12/27 03:09:06;;;;;;;10.32;1.52;;;21.40;99.90;;;;;;5065855;28;20116;-67
2021/12/27 03:11:33;;;;;;;12.38;2.03;;;21.20;99.90;;;;;;5062804;28;20032;-68
2021/12/27 03:14:00;;;;;;;9.52;1.27;;;21.20;99.90;;;;;;5064567;28;20040;-68
2021/12/27 03:16:31;;;;;;;5.80;1.60;;;21.10;99.90;;;;;;5062550;28;20097;-68
2021/12/27 03:18:58;;;;;;;6.57;1.27;;;21.10;99.90;;;;;;5062460;28;20480;-68
2021/12/27 03:21:26;;;;;;;7.70;1.33;;;21.20;99.90;;;;;;5062526;28;20044;-69
2021/12/27 03:23:54;;;;;;;8.98;1.20;;;21.10;99.90;;;;;;5052866;28;20025;-68
2021/12/27 03:26:21;;;;;;;8.13;0.95;;;20.90;99.90;;;;;;5059581;28;20029;-67
2021/12/27 03:28:49;;;;;;;4.50;1.02;;;20.90;99.90;;;;;;5060848;28;20032;-68
2021/12/27 03:31:19;;;;;;;11.85;1.75;;;21.00;99.90;;;;;;5060177;28;20107;-66
2021/12/27 03:33:46;;;;;;;7.55;1.02;;;21.10;99.90;;;;;;5054246;28;20034;-67
2021/12/27 03:36:14;;;;;;;7.50;1.15;;;20.90;99.90;;;;;;5064541;28;20041;-67
2021/12/27 03:38:52;;;;;;;10.18;1.20;;;21.00;99.90;;;;;;5062958;28;20108;-67
2021/12/27 03:41:23;;;;;;;7.18;1.38;;;20.90;99.90;;;;;;5063498;28;20025;-67
2021/12/27 03:43:51;;;;;;;7.70;1.52;;;20.90;99.90;;;;;;5067532;28;20020;-66
2021/12/27 03:46:18;;;;;;;10.27;1.23;;;20.90;99.90;;;;;;5064047;28;20517;-68
2021/12/27 03:48:45;;;;;;;8.57;1.15;;;20.90;99.90;;;;;;5043773;28;20034;-67
2021/12/27 03:51:12;;;;;;;8.38;0.63;;;20.80;99.90;;;;;;5057842;28;20030;-68
2021/12/27 03:53:40;;;;;;;5.60;0.88;;;20.90;99.90;;;;;;5059019;28;20068;-67
2021/12/27 03:56:08;;;;;;;7.75;1.50;;;20.70;99.90;;;;;;5051101;28;20043;-66
2021/12/27 03:58:53;;;;;;;5.15;0.60;;;20.90;99.90;;;;;;5047518;28;20029;-66
2021/12/27 04:01:23;;;;;;;6.85;1.60;;;21.00;99.90;;;;;;5051221;28;20029;-67
2021/12/27 04:03:54;;;;;;;6.65;1.00;;;21.10;99.90;;;;;;5042624;28;20076;-66
2021/12/27 04:06:25;;;;;;;4.72;0.70;;;21.40;99.90;;;;;;5048105;28;20428;-68
2021/12/27 04:08:52;;;;;;;6.07;0.75;;;21.50;99.90;;;;;;5042958;28;20033;-67
2021/12/27 04:11:20;;;;;;;5.72;0.77;;;21.40;99.90;;;;;;5039286;28;20039;-67
2021/12/27 04:13:47;;;;;;;8.55;0.82;;;21.50;99.90;;;;;;5051575;28;20050;-66
2021/12/27 04:16:14;;;;;;;6.50;0.85;;;21.80;99.90;;;;;;5054392;28;20033;-67
2021/12/27 04:18:42;;;;;;;7.78;1.00;;;21.90;99.90;;;;;;5053413;28;20041;-68
2021/12/27 04:21:09;;;;;;;3.38;0.70;;;21.80;99.90;;;;;;5049676;28;20535;-67
2021/12/27 04:23:36;;;;;;;4.60;0.40;;;22.10;99.90;;;;;;5042075;28;20390;-66
2021/12/27 04:26:04;;;;;;;5.03;0.70;;;22.30;99.90;;;;;;5048264;28;20389;-67
2021/12/27 04:28:32;;;;;;;3.97;0.65;;;22.20;99.90;;;;;;5048049;28;20029;-67
2021/12/27 04:30:59;;;;;;;4.80;0.45;;;22.00;99.90;;;;;;5054727;28;20107;-66
2021/12/27 04:33:26;;;;;;;7.13;0.65;;;22.00;99.90;;;;;;5060213;28;20033;-67
2021/12/27 04:35:54;;;;;;;4.82;0.50;;;22.40;99.90;;;;;;5064658;28;20033;-68
2021/12/27 04:38:21;;;;;;;5.28;0.98;;;22.20;99.90;;;;;;5060511;28;20037;-67
2021/12/27 04:40:53;;;;;;;3.25;0.43;;;22.00;99.90;;;;;;5046401;28;20117;-68
2021/12/27 04:43:23;;;;;;;7.40;0.50;;;21.70;99.90;;;;;;5060857;28;20025;-67
2021/12/27 04:45:53;;;;;;;3.63;0.57;;;21.80;99.90;;;;;;5064249;28;20017;-67
2021/12/27 04:48:22;;;;;;;4.15;0.45;;;21.90;99.90;;;;;;5050712;28;20052;-67
2021/12/27 04:50:49;;;;;;;4.53;0.55;;;21.60;99.90;;;;;;5048082;28;20088;-67
2021/12/27 04:53:17;;;;;;;2.83;0.40;;;21.60;99.90;;;;;;5061743;28;20059;-67
2021/12/27 04:55:45;;;;;;;4.60;0.43;;;21.70;99.90;;;;;;5059205;28;20041;-68
2021/12/27 04:58:16;;;;;;;7.00;0.60;;;21.50;99.90;;;;;;5056380;28;20045;-66
2021/12/27 05:00:44;;;;;;;4.60;0.88;;;21.90;99.90;;;;;;5058471;28;20014;-68
2021/12/27 05:03:11;;;;;;;5.00;0.50;;;22.10;99.90;;;;;;5050086;28;20029;-67
2021/12/27 05:05:42;;;;;;;11.98;1.10;;;21.90;99.90;;;;;;5056202;28;20025;-66
2021/12/27 05:08:09;;;;;;;6.53;1.27;;;21.90;99.90;;;;;;5056240;28;20043;-67
2021/12/27 05:10:36;;;;;;;5.65;1.23;;;21.70;99.90;;;;;;5067187;28;20021;-67
2021/12/27 05:13:05;;;;;;;6.88;0.70;;;21.50;99.90;;;;;;5069708;28;20381;-67
2021/12/27 05:15:32;;;;;;;2.88;0.40;;;21.30;99.90;;;;;;5068376;28;20408;-68
2021/12/27 05:17:59;;;;;;;8.48;1.08;;;21.00;99.90;;;;;;5063798;28;20037;-67
2021/12/27 05:20:27;;;;;;;9.88;1.10;;;20.10;99.90;;;;;;5068274;28;20036;-67
2021/12/27 05:22:54;;;;;;;9.18;1.23;;;19.20;99.90;;;;;;5079333;28;20044;-66
2021/12/27 05:25:22;;;;;;;6.15;0.80;;;18.80;99.90;;;;;;5079158;28;20033;-67
2021/12/27 05:27:49;;;;;;;6.80;0.82;;;18.80;99.90;;;;;;5076228;28;20029;-67
2021/12/27 05:30:17;;;;;;;6.10;1.30;;;18.60;99.90;;;;;;5068079;28;20024;-66
2021/12/27 05:32:44;;;;;;;8.32;1.33;;;18.50;99.90;;;;;;5071451;28;20013;-65
2021/12/27 05:35:13;;;;;;;9.25;1.50;;;18.40;99.90;;;;;;5076896;28;20145;-66
2021/12/27 05:37:41;;;;;;;9.55;1.63;;;18.40;99.90;;;;;;5073553;28;20045;-67
2021/12/27 05:40:17;;;;;;;9.88;1.45;;;18.10;99.90;;;;;;5073034;28;20037;-67
2021/12/27 05:42:44;;;;;;;12.20;2.00;;;18.20;99.90;;;;;;5072839;28;20044;-66
2021/12/27 05:45:12;;;;;;;9.73;1.92;;;18.30;99.90;;;;;;5076856;28;20013;-67
2021/12/27 05:47:39;;;;;;;12.23;2.85;;;18.30;99.90;;;;;;5069121;28;20053;-66
2021/12/27 05:50:07;;;;;;;14.80;2.10;;;18.40;99.90;;;;;;5063958;28;20021;-66
2021/12/27 05:52:35;;;;;;;14.32;1.85;;;18.40;99.90;;;;;;5074332;28;20013;-66
2021/12/27 05:55:08;;;;;;;21.67;3.15;;;18.50;99.90;;;;;;5071508;28;20021;-66
2021/12/27 05:57:36;;;;;;;15.55;2.58;;;18.30;99.90;;;;;;5071083;28;20048;-66
2021/12/27 06:00:07;;;;;;;16.60;2.22;;;18.30;99.90;;;;;;5076363;28;20025;-66
2021/12/27 06:02:34;;;;;;;15.20;2.63;;;18.40;99.90;;;;;;5075813;28;20029;-65
2021/12/27 06:05:01;;;;;;;13.00;2.45;;;18.50;99.90;;;;;;5068815;28;20025;-67
2021/12/27 06:07:29;;;;;;;9.57;1.63;;;18.40;99.90;;;;;;5064800;28;20393;-66
2021/12/27 06:09:56;;;;;;;16.50;2.00;;;18.20;99.90;;;;;;5071766;28;20021;-66
2021/12/27 06:12:24;;;;;;;13.88;1.95;;;18.10;99.90;;;;;;5074229;28;20064;-65
2021/12/27 06:14:51;;;;;;;21.52;2.40;;;18.10;99.90;;;;;;5077082;28;20051;-66
2021/12/27 06:17:19;;;;;;;10.43;1.75;;;18.10;99.90;;;;;;5064942;28;20012;-66
2021/12/27 06:19:46;;;;;;;11.23;1.75;;;18.10;99.90;;;;;;5057858;28;20032;-67
2021/12/27 06:22:14;;;;;;;16.10;2.03;;;18.00;99.90;;;;;;5063486;28;20545;-66
2021/12/27 06:24:41;;;;;;;15.35;1.77;;;17.90;99.90;;;;;;5070899;28;20028;-66
2021/12/27 06:27:08;;;;;;;19.67;1.83;;;17.90;99.90;;;;;;5066809;28;20532;-66
2021/12/27 06:29:36;;;;;;;12.88;2.05;;;17.90;99.90;;;;;;5067074;28;20020;-66
2021/12/27 06:32:03;;;;;;;16.77;1.80;;;18.10;99.90;;;;;;5058097;28;20037;-66
2021/12/27 06:34:30;;;;;;;12.63;1.55;;;18.10;99.90;;;;;;5057481;28;20243;-67
2021/12/27 06:36:57;;;;;;;16.48;2.40;;;18.10;99.90;;;;;;5057931;28;20055;-67
2021/12/27 06:39:25;;;;;;;9.63;1.98;;;18.10;99.90;;;;;;5055958;28;20037;-66
2021/12/27 06:41:52;;;;;;;15.35;2.75;;;18.00;99.90;;;;;;5056667;28;20021;-68
2021/12/27 06:44:19;;;;;;;12.70;1.95;;;17.80;99.90;;;;;;5051082;28;20036;-67
2021/12/27 06:46:47;;;;;;;19.10;3.22;;;17.70;99.90;;;;;;5051843;28;20049;-67
2021/12/27 06:49:14;;;;;;;15.30;1.80;;;17.70;99.90;;;;;;5048236;28;20017;-67
2021/12/27 06:51:41;;;;;;;15.45;1.67;;;17.70;99.90;;;;;;5051668;28;20021;-66
2021/12/27 06:54:08;;;;;;;12.73;2.00;;;17.70;99.90;;;;;;5049425;28;20116;-66
2021/12/27 06:56:36;;;;;;;13.70;2.03;;;17.80;99.90;;;;;;5050586;28;20036;-67
2021/12/27 06:59:04;;;;;;;10.63;1.90;;;17.70;99.90;;;;;;5046565;28;20026;-66
2021/12/27 07:01:31;;;;;;;16.00;2.67;;;17.60;99.90;;;;;;5048848;28;20021;-67
2021/12/27 07:03:58;;;;;;;12.00;2.40;;;17.70;99.90;;;;;;5051109;28;20028;-67
2021/12/27 07:06:26;;;;;;;14.52;2.08;;;17.60;99.90;;;;;;5051686;28;20036;-67
2021/12/27 07:08:53;;;;;;;16.10;2.50;;;17.70;99.90;;;;;;5054729;28;20028;-68
2021/12/27 07:11:20;;;;;;;20.25;2.13;;;17.60;99.90;;;;;;5053766;28;20025;-68
2021/12/27 07:13:47;;;;;;;11.40;2.65;;;17.70;99.90;;;;;;5043955;28;20033;-67
2021/12/27 07:16:15;;;;;;;12.20;2.13;;;17.70;99.90;;;;;;5056269;28;20128;-67
2021/12/27 07:18:42;;;;;;;9.25;1.77;;;17.90;99.90;;;;;;5058064;28;20049;-68
2021/12/27 07:21:09;;;;;;;11.95;1.90;;;18.00;99.90;;;;;;5056074;28;20051;-68
2021/12/27 07:23:36;;;;;;;13.40;2.92;;;17.90;99.90;;;;;;5059994;28;20377;-66
2021/12/27 07:26:04;;;;;;;16.17;1.90;;;17.90;99.90;;;;;;5052543;28;20033;-68
2021/12/27 07:28:31;;;;;;;14.73;2.90;;;17.90;99.90;;;;;;5059083;28;20017;-66
2021/12/27 07:30:58;;;;;;;17.70;2.85;;;18.00;99.90;;;;;;5062521;28;20100;-69
2021/12/27 07:33:26;;;;;;;19.42;2.75;;;18.00;99.90;;;;;;5061805;28;20027;-69
2021/12/27 07:35:53;;;;;;;19.02;2.42;;;18.00;99.90;;;;;;5060330;28;20036;-69
2021/12/27 07:38:20;;;;;;;12.43;1.55;;;18.00;99.90;;;;;;5064438;28;20039;-69
2021/12/27 07:40:48;;;;;;;11.10;2.03;;;17.90;99.90;;;;;;5057772;28;20028;-69
2021/12/27 07:43:15;;;;;;;12.80;2.20;;;17.90;99.90;;;;;;5050403;28;20030;-69
2021/12/27 07:45:42;;;;;;;15.18;1.60;;;17.90;99.90;;;;;;5039786;28;20482;-69
2021/12/27 07:48:10;;;;;;;12.63;2.05;;;17.90;99.90;;;;;;5052984;28;20479;-69
2021/12/27 07:50:38;;;;;;;12.23;1.55;;;17.90;99.90;;;;;;5053906;28;20041;-70
2021/12/27 07:53:06;;;;;;;19.45;1.80;;;17.90;99.90;;;;;;5055285;28;20033;-69
2021/12/27 07:55:34;;;;;;;9.32;0.88;;;17.90;99.90;;;;;;5055023;28;20025;-69
2021/12/27 07:58:01;;;;;;;9.43;1.67;;;18.00;99.90;;;;;;5040193;28;20026;-68
2021/12/27 08:00:29;;;;;;;16.50;1.67;;;18.00;99.90;;;;;;5054806;28;20013;-68
2021/12/27 08:02:56;;;;;;;8.82;1.52;;;18.00;99.90;;;;;;5051502;28;20029;-68
2021/12/27 08:05:24;;;;;;;15.57;2.25;;;18.00;99.90;;;;;;5057056;28;20486;-68
2021/12/27 08:07:51;;;;;;;8.88;1.40;;;18.00;99.90;;;;;;5056557;28;20036;-69
2021/12/27 08:10:19;;;;;;;14.23;2.80;;;18.10;99.90;;;;;;5057698;28;20053;-69
2021/12/27 08:12:46;;;;;;;19.50;2.22;;;18.20;99.90;;;;;;5059784;28;20055;-67
2021/12/27 08:15:14;;;;;;;11.70;1.52;;;18.20;99.90;;;;;;5059891;28;20031;-68
2021/12/27 08:17:42;;;;;;;13.40;1.67;;;18.20;99.90;;;;;;5059143;28;20025;-69
2021/12/27 08:20:09;;;;;;;13.13;1.85;;;18.20;99.90;;;;;;5046625;28;20072;-68
2021/12/27 08:22:37;;;;;;;6.63;1.45;;;18.20;99.90;;;;;;5051282;28;20448;-69
2021/12/27 08:25:08;;;;;;;11.32;1.52;;;18.30;99.90;;;;;;5056884;28;20048;-68
2021/12/27 08:27:38;;;;;;;18.90;2.13;;;18.30;99.90;;;;;;5057719;28;20057;-68
2021/12/27 08:30:07;;;;;;;10.38;1.15;;;18.20;99.90;;;;;;5055039;28;20025;-68
2021/12/27 08:32:37;;;;;;;12.80;1.75;;;18.20;99.90;;;;;;5061015;28;20061;-68
2021/12/27 08:35:05;;;;;;;12.32;2.10;;;18.10;99.90;;;;;;5056930;28;20028;-69
2021/12/27 08:37:34;;;;;;;11.50;1.40;;;18.00;99.90;;;;;;5058456;28;20033;-68
2021/12/27 08:40:01;;;;;;;11.95;2.05;;;18.00;99.90;;;;;;5055796;28;20036;-69
2021/12/27 08:42:28;;;;;;;10.40;1.60;;;17.80;99.90;;;;;;5054086;28;20025;-68
2021/12/27 08:44:56;;;;;;;15.23;1.67;;;17.80;99.90;;;;;;5058584;28;20431;-69
2021/12/27 08:47:23;;;;;;;15.23;2.97;;;17.80;99.90;;;;;;5056125;28;20052;-68
2021/12/27 08:49:51;;;;;;;9.20;1.58;;;17.80;99.90;;;;;;5059952;28;20040;-68
2021/12/27 08:52:18;;;;;;;15.50;3.05;;;17.80;99.90;;;;;;5058627;28;20033;-68
2021/12/27 08:54:46;;;;;;;17.20;2.20;;;17.80;99.90;;;;;;5058001;28;20035;-68
2021/12/27 08:57:13;;;;;;;17.00;3.20;;;17.70;99.90;;;;;;5053204;28;20024;-68
2021/12/27 08:59:41;;;;;;;12.05;1.95;;;17.70;99.90;;;;;;5052601;28;20048;-68
2021/12/27 09:02:08;;;;;;;11.40;1.98;;;17.60;99.90;;;;;;5055805;28;20028;-67
2021/12/27 09:04:35;;;;;;;13.02;2.60;;;17.70;99.90;;;;;;5055564;28;20040;-67
2021/12/27 09:07:03;;;;;;;10.95;2.83;;;17.80;99.90;;;;;;5054826;28;20595;-68
2021/12/27 09:09:31;;;;;;;13.55;1.77;;;17.80;99.90;;;;;;5055970;28;20672;-68
2021/12/27 09:12:00;;;;;;;10.05;1.90;;;17.90;99.90;;;;;;5056004;28;20541;-68
2021/12/27 09:14:27;;;;;;;11.63;2.20;;;17.90;99.90;;;;;;5055097;28;20025;-68
2021/12/27 09:16:54;;;;;;;14.98;2.95;;;17.80;99.90;;;;;;5056666;28;20025;-67
2021/12/27 09:19:21;;;;;;;15.63;2.22;;;17.80;99.90;;;;;;5055106;28;20032;-68
2021/12/27 09:21:49;;;;;;;21.42;4.03;;;17.90;99.90;;;;;;5049626;28;20048;-69
2021/12/27 09:24:16;;;;;;;15.05;2.72;;;17.80;99.90;;;;;;5054967;28;20393;-68
2021/12/27 09:26:44;;;;;;;11.23;2.10;;;17.70;99.90;;;;;;5057051;28;20025;-69
2021/12/27 09:29:11;;;;;;;18.35;1.95;;;17.70;99.90;;;;;;5052303;28;20037;-69
2021/12/27 09:31:39;;;;;;;11.25;2.17;;;17.60;99.90;;;;;;5057544;28;20100;-68
2021/12/27 09:34:06;;;;;;;13.48;2.80;;;17.40;99.90;;;;;;5060452;28;20114;-68
2021/12/27 09:36:37;;;;;;;13.73;2.75;;;17.40;99.90;;;;;;5052483;28;20130;-67
2021/12/27 09:39:05;;;;;;;9.23;1.80;;;17.20;99.90;;;;;;5056867;28;20033;-67
2021/12/27 09:41:32;;;;;;;11.93;1.70;;;17.00;99.90;;;;;;5054920;28;20022;-69
2021/12/27 09:44:00;;;;;;;14.18;1.95;;;17.00;99.90;;;;;;5047375;28;20387;-68
2021/12/27 09:46:27;;;;;;;16.83;2.88;;;16.90;99.90;;;;;;5057641;28;20053;-68
2021/12/27 09:48:57;;;;;;;16.70;2.05;;;16.90;99.90;;;;;;5055561;28;20024;-67
2021/12/27 09:51:26;;;;;;;12.25;2.70;;;16.90;99.90;;;;;;5056946;28;20051;-67
2021/12/27 09:53:54;;;;;;;10.52;1.88;;;16.90;99.90;;;;;;5057993;28;20039;-68
2021/12/27 09:56:21;;;;;;;10.40;1.83;;;16.90;99.90;;;;;;5055475;28;20048;-67
2021/12/27 09:58:49;;;;;;;8.43;1.50;;;17.00;99.90;;;;;;5055595;28;20045;-67
2021/12/27 10:01:16;;;;;;;12.32;1.85;;;17.00;99.90;;;;;;5053138;28;20045;-67
2021/12/27 10:03:56;;;;;;;12.98;2.67;;;17.10;99.90;;;;;;5055362;28;20101;-67
2021/12/27 10:06:25;;;;;;;12.02;1.90;;;17.10;99.90;;;;;;5055011;28;20033;-67
2021/12/27 10:08:57;;;;;;;11.02;1.95;;;17.10;99.90;;;;;;5055879;28;20389;-67
2021/12/27 10:11:31;;;;;;;12.40;2.47;;;17.10;99.90;;;;;;5048503;28;20063;-67
2021/12/27 10:14:17;;;;;;;21.40;2.60;;;17.20;99.90;;;;;;5068161;28;20540;-67
2021/12/27 10:17:03;;;;;;;12.55;2.60;;;17.20;99.90;;;;;;5058639;28;20028;-67
2021/12/27 10:19:33;;;;;;;10.40;1.75;;;17.30;99.90;;;;;;5052055;28;20048;-67
2021/12/27 10:22:01;;;;;;;13.48;2.25;;;17.30;99.90;;;;;;5054753;28;20402;-67
2021/12/27 10:24:29;;;;;;;15.02;2.20;;;17.30;99.90;;;;;;5054903;28;20334;-67
2021/12/27 10:27:00;;;;;;;13.82;2.20;;;17.20;99.90;;;;;;5051767;28;20481;-67
2021/12/27 10:29:37;;;;;;;14.90;2.00;;;17.20;99.90;;;;;;5048518;28;20025;-67
2021/12/27 10:32:18;;;;;;;12.00;2.53;;;17.30;99.90;;;;;;5048116;28;20362;-67
2021/12/27 10:34:49;;;;;;;14.88;2.25;;;17.40;99.90;;;;;;5052301;28;20115;-68
2021/12/27 10:37:18;;;;;;;9.93;1.80;;;17.50;99.90;;;;;;5047541;28;20390;-68
2021/12/27 10:39:54;;;;;;;9.27;1.70;;;17.40;99.90;;;;;;5053610;28;20040;-67
2021/12/27 10:42:26;;;;;;;17.75;2.25;;;17.40;99.90;;;;;;5053269;28;20385;-67
2021/12/27 10:44:57;;;;;;;14.15;2.85;;;17.40;99.90;;;;;;5053968;28;20148;-67
2021/12/27 10:47:33;;;;;;;14.05;2.15;;;17.30;99.90;;;;;;5053791;28;20049;-67
2021/12/27 10:50:10;;;;;;;13.75;1.80;;;17.30;99.90;;;;;;5053386;28;20021;-67
2021/12/27 10:52:53;;;;;;;14.55;2.45;;;17.30;99.90;;;;;;5053484;28;20476;-67
2021/12/27 10:55:35;;;;;;;18.92;2.95;;;17.30;99.90;;;;;;5053089;28;20033;-66
2021/12/27 10:58:25;;;;;;;12.48;1.83;;;17.20;99.90;;;;;;5052520;28;20444;-67
2021/12/27 11:01:03;;;;;;;13.02;2.80;;;17.10;99.90;;;;;;5055240;28;20083;-66
2021/12/27 11:03:32;;;;;;;18.05;2.33;;;17.00;99.90;;;;;;5053252;28;20489;-68
2021/12/27 11:06:02;;;;;;;13.85;2.30;;;17.10;99.90;;;;;;5067556;28;20432;-68
2021/12/27 11:08:31;;;;;;;10.57;1.90;;;17.10;99.90;;;;;;5052949;28;20028;-68
2021/12/27 11:10:58;;;;;;;18.83;2.33;;;17.00;99.90;;;;;;5033396;28;20075;-68
2021/12/27 11:13:27;;;;;;;16.33;2.13;;;16.90;99.90;;;;;;5053001;28;20044;-68
2021/12/27 11:15:55;;;;;;;12.15;1.30;;;16.70;99.90;;;;;;5052611;28;20025;-67
2021/12/27 11:18:23;;;;;;;20.25;2.70;;;16.80;99.90;;;;;;5052832;28;20119;-67
2021/12/27 11:21:02;;;;;;;15.50;2.60;;;16.80;99.90;;;;;;5052368;28;20020;-68
2021/12/27 11:23:31;;;;;;;14.23;2.38;;;16.80;99.90;;;;;;5042432;28;20429;-68
2021/12/27 11:26:08;;;;;;;14.10;2.47;;;16.80;99.90;;;;;;5052527;28;20031;-67
2021/12/27 11:28:38;;;;;;;18.50;1.95;;;16.90;99.90;;;;;;5050598;28;20021;-67
2021/12/27 11:31:19;;;;;;;16.60;2.72;;;16.90;99.90;;;;;;5039870;28;20013;-67
2021/12/27 11:34:08;;;;;;;12.98;1.90;;;17.00;99.90;;;;;;5048999;28;20062;-68
2021/12/27 11:36:41;;;;;;;11.38;1.52;;;16.90;99.90;;;;;;5046763;28;20386;-68
2021/12/27 11:39:31;;;;;;;12.95;1.92;;;16.90;99.90;;;;;;5052068;28;20031;-68
2021/12/27 11:42:02;;;;;;;18.38;2.45;;;16.90;99.90;;;;;;5049127;28;20021;-68
2021/12/27 11:44:40;;;;;;;12.32;1.38;;;17.00;99.90;;;;;;5052281;28;20021;-68
2021/12/27 11:47:09;;;;;;;19.58;2.63;;;17.00;99.90;;;;;;5052318;28;20067;-67
2021/12/27 11:50:01;;;;;;;18.60;2.67;;;17.00;99.90;;;;;;5052319;28;20033;-68
2021/12/27 11:52:40;;;;;;;12.88;2.13;;;17.00;99.90;;;;;;5049130;28;20025;-67
2021/12/27 11:55:22;;;;;;;14.27;2.08;;;17.00;99.90;;;;;;5051477;28;20027;-67
2021/12/27 11:57:53;;;;;;;16.27;2.03;;;17.00;99.90;;;;;;5052254;28;20032;-67
2021/12/27 12:00:24;;;;;;;13.45;2.28;;;17.00;99.90;;;;;;5051712;28;20075;-67
2021/12/27 12:02:54;;;;;;;15.15;2.42;;;17.00;99.90;;;;;;5051940;28;20029;-67
2021/12/27 12:05:39;;;;;;;9.45;2.08;;;17.00;99.90;;;;;;5051820;28;20585;-67
2021/12/27 12:08:07;;;;;;;15.82;2.13;;;17.00;99.90;;;;;;5052122;28;20032;-67
2021/12/27 12:10:37;;;;;;;15.48;1.90;;;17.10;99.90;;;;;;5059423;28;20036;-68
2021/12/27 12:13:19;;;;;;;12.15;1.70;;;17.20;99.90;;;;;;5051201;28;20075;-68
2021/12/27 12:15:56;;;;;;;16.63;2.97;;;17.10;99.90;;;;;;5032267;28;20116;-67
2021/12/27 12:18:24;;;;;;;13.63;1.83;;;17.10;99.90;;;;;;5035550;28;20038;-67
2021/12/27 12:20:52;;;;;;;9.98;1.23;;;17.10;99.90;;;;;;5051252;28;20025;-67
2021/12/27 12:23:19;;;;;;;8.35;1.63;;;17.10;99.90;;;;;;5051857;28;20028;-68
2021/12/27 12:25:47;;;;;;;14.65;1.70;;;17.10;99.90;;;;;;5044257;28;20033;-70
2021/12/27 12:28:16;;;;;;;13.57;1.73;;;17.10;99.90;;;;;;5048050;28;20025;-68
2021/12/27 12:30:53;;;;;;;15.13;1.80;;;17.00;99.90;;;;;;5051038;28;20032;-69
2021/12/27 12:33:29;;;;;;;11.75;1.40;;;17.00;99.90;;;;;;5048744;28;20032;-68
2021/12/27 12:36:00;;;;;;;9.18;1.45;;;16.90;99.90;;;;;;5051997;28;20048;-71
2021/12/27 12:38:31;;;;;;;9.00;1.25;;;16.80;99.90;;;;;;5050939;28;20064;-70
2021/12/27 12:41:15;;;;;;;9.60;1.08;;;16.80;99.90;;;;;;5051345;28;20025;-69
2021/12/27 12:43:52;;;;;;;8.10;0.95;;;16.80;99.90;;;;;;5045650;28;20425;-69
2021/12/27 12:46:26;;;;;;;10.93;1.67;;;16.70;99.90;;;;;;5051660;28;20049;-68
2021/12/27 12:49:23;;;;;;;8.53;0.97;;;16.70;99.90;;;;;;5052014;28;20025;-67
2021/12/27 12:51:52;;;;;;;11.25;1.98;;;16.80;99.90;;;;;;5048447;28;20041;-71
2021/12/27 12:54:22;;;;;;;15.65;1.63;;;16.70;99.90;;;;;;5034228;28;20052;-69